| time (UTC) | temp F | wind direction | speed MPH | gust MPH | rain 1hr in | rain 24hr in | rain mn in | humidity % | barometer mb |
| 20260507114609 | 42 | 298 | 2.0 | 6.0 | 0.00 | 0.10 | 0.01 | 67 | 1013.0 |
| 20260507113639 | 42 | 296 | 2.0 | 6.0 | 0.00 | 0.12 | 0.01 | 68 | 1012.8 |
| 20260507112631 | 42 | 302 | 4.0 | 7.0 | 0.00 | 0.14 | 0.01 | 69 | 1012.8 |
| 20260507111622 | 41 | 300 | 2.0 | 6.0 | 0.00 | 0.16 | 0.01 | 70 | 1012.8 |
| 20260507110635 | 41 | 308 | 2.0 | 6.0 | 0.00 | 0.17 | 0.01 | 75 | 1012.7 |
| 20260507105640 | 40 | 309 | 2.0 | 5.0 | 0.00 | 0.17 | 0.01 | 76 | 1012.7 |
| 20260507104640 | 38 | 311 | 2.0 | 6.0 | 0.00 | 0.17 | 0.01 | 79 | 1012.7 |
| 20260507103633 | 37 | 320 | 2.0 | 5.0 | 0.00 | 0.17 | 0.01 | 82 | 1012.6 |
| 20260507101636 | 36 | 354 | 2.0 | 3.0 | 0.00 | 0.18 | 0.01 | 85 | 1012.8 |
| 20260507100605 | 36 | 354 | 2.0 | 3.0 | 0.00 | 0.19 | 0.01 | 83 | 1012.9 |
| 20260507095620 | 36 | 354 | 2.0 | 3.0 | 0.00 | 0.19 | 0.01 | 83 | 1012.8 |
| 20260507093605 | 37 | 354 | 1.0 | 2.0 | 0.00 | 0.19 | 0.01 | 82 | 1012.8 |
| 20260507092612 | 37 | 354 | 1.0 | 2.0 | 0.00 | 0.19 | 0.01 | 82 | 1012.8 |
| 20260507085607 | 38 | 354 | 0.0 | 1.0 | 0.00 | 0.19 | 0.01 | 79 | 1012.6 |
| 20260507084645 | 38 | 354 | 0.0 | 1.0 | 0.00 | 0.19 | 0.01 | 77 | 1012.6 |
| 20260507083616 | 39 | 354 | 1.0 | 2.0 | 0.00 | 0.19 | 0.01 | 75 | 1012.7 |
| 20260507081614 | 41 | 0 | 0.0 | 2.0 | 0.00 | 0.19 | 0.01 | 70 | 1012.7 |
| 20260507080603 | 43 | 0 | 0.0 | 2.0 | 0.00 | 0.19 | 0.01 | 66 | 1012.7 |
| 20260507075630 | 43 | 0 | 0.0 | 2.0 | 0.00 | 0.19 | 0.01 | 63 | 1012.8 |
| 20260507073643 | 44 | 287 | 0.0 | 5.0 | 0.00 | 0.19 | 0.01 | 61 | 1012.7 |
| 20260507072607 | 44 | 322 | 0.0 | 5.0 | 0.00 | 0.19 | 0.01 | 61 | 1012.7 |
| 20260507071617 | 44 | 289 | 0.0 | 6.0 | 0.00 | 0.19 | 0.01 | 61 | 1012.7 |
| 20260507070633 | 44 | 329 | 2.0 | 5.0 | 0.00 | 0.19 | 0.01 | 61 | 1012.6 |
| 20260507065608 | 44 | 267 | 1.0 | 2.0 | 0.00 | 0.19 | 0.01 | 61 | 1012.7 |
| 20260507064608 | 44 | 320 | 0.0 | 5.0 | 0.00 | 0.19 | 0.01 | 60 | 1012.7 |
| 20260507063620 | 44 | 260 | 0.0 | 6.0 | 0.00 | 0.19 | 0.01 | 60 | 1012.8 |
| 20260507061606 | 44 | 290 | 1.0 | 5.0 | 0.00 | 0.19 | 0.01 | 61 | 1012.8 |
| 20260507060636 | 44 | 266 | 2.0 | 5.0 | 0.00 | 0.19 | 0.01 | 61 | 1013.1 |
| 20260507055617 | 45 | 275 | 0.0 | 2.0 | 0.00 | 0.19 | 0.01 | 60 | 1013.1 |
| 20260507053609 | 45 | 257 | 2.0 | 4.0 | 0.01 | 0.19 | 0.01 | 59 | 1012.9 |
| 20260507052608 | 45 | 254 | 0.0 | 2.0 | 0.01 | 0.19 | 0.01 | 58 | 1013.2 |
| 20260507051637 | 45 | 331 | 2.0 | 5.0 | 0.01 | 0.19 | 0.01 | 57 | 1013.2 |
| 20260507050602 | 45 | 288 | 1.0 | 3.0 | 0.01 | 0.19 | 0.01 | 56 | 1013.1 |
| 20260507045644 | 46 | 304 | 1.0 | 5.0 | 0.01 | 0.19 | 0.01 | 56 | 1013.2 |
| 20260507044637 | 46 | 296 | 1.0 | 6.0 | 0.00 | 0.18 | 0.00 | 55 | 1013.2 |
| 20260507043637 | 46 | 303 | 1.0 | 5.0 | 0.00 | 0.18 | 0.00 | 55 | 1013.0 |
| 20260507041638 | 46 | 253 | 1.0 | 3.0 | 0.00 | 0.18 | 0.00 | 56 | 1012.8 |
| 20260507040610 | 46 | 288 | 1.0 | 3.0 | 0.00 | 0.18 | 0.00 | 55 | 1012.6 |
| 20260507034620 | 46 | 243 | 1.0 | 3.0 | 0.00 | 0.18 | 0.18 | 56 | 1012.9 |
| 20260507033622 | 46 | 297 | 6.0 | 11.0 | 0.00 | 0.18 | 0.18 | 56 | 1012.8 |
| 20260507032619 | 47 | 301 | 1.0 | 6.0 | 0.00 | 0.18 | 0.18 | 62 | 1012.6 |
| 20260507031602 | 47 | 288 | 0.0 | 2.0 | 0.00 | 0.18 | 0.18 | 63 | 1012.6 |
| 20260507030645 | 47 | 288 | 2.0 | 11.0 | 0.00 | 0.18 | 0.18 | 63 | 1012.5 |
| 20260507025620 | 47 | 318 | 3.0 | 6.0 | 0.00 | 0.18 | 0.18 | 64 | 1012.3 |
| 20260507024635 | 48 | 274 | 0.0 | 7.0 | 0.00 | 0.18 | 0.18 | 66 | 1012.3 |
| 20260507023626 | 48 | 5 | 4.0 | 7.0 | 0.00 | 0.18 | 0.18 | 68 | 1012.3 |
| 20260507021636 | 48 | 339 | 4.0 | 9.0 | 0.00 | 0.18 | 0.18 | 71 | 1012.0 |
| 20260507015627 | 49 | 296 | 3.0 | 9.0 | 0.00 | 0.18 | 0.18 | 78 | 1012.3 |
| 20260507014624 | 49 | 321 | 4.0 | 8.0 | 0.00 | 0.18 | 0.18 | 82 | 1012.3 |
| 20260507012625 | 49 | 295 | 0.0 | 6.0 | 0.00 | 0.18 | 0.18 | 82 | 1012.3 |
| 20260507011635 | 49 | 294 | 0.0 | 5.0 | 0.00 | 0.18 | 0.18 | 81 | 1012.3 |
| 20260507010610 | 49 | 282 | 3.0 | 7.0 | 0.00 | 0.18 | 0.18 | 82 | 1012.2 |
| 20260507005639 | 49 | 308 | 1.0 | 5.0 | 0.00 | 0.18 | 0.18 | 82 | 1012.2 |
| 20260507003646 | 50 | 270 | 0.0 | 6.0 | 0.00 | 0.18 | 0.18 | 82 | 1012.1 |
| 20260507002626 | 50 | 335 | 1.0 | 8.0 | 0.00 | 0.18 | 0.18 | 82 | 1011.6 |
| 20260507001637 | 50 | 343 | 1.0 | 5.0 | 0.00 | 0.18 | 0.18 | 82 | 1011.6 |
| 20260507000621 | 50 | 319 | 0.0 | 5.0 | 0.00 | 0.18 | 0.18 | 82 | 1011.6 |
| 20260506235648 | 50 | 315 | 1.0 | 3.0 | 0.00 | 0.18 | 0.18 | 82 | 1011.2 |
| 20260506233642 | 50 | 273 | 1.0 | 5.0 | 0.00 | 0.18 | 0.18 | 82 | 1010.9 |
| 20260506232641 | 50 | 268 | 2.0 | 6.0 | 0.00 | 0.18 | 0.18 | 82 | 1010.7 |
| 20260506231634 | 50 | 280 | 2.0 | 6.0 | 0.00 | 0.18 | 0.18 | 82 | 1010.7 |
| 20260506230604 | 50 | 346 | 0.0 | 6.0 | 0.00 | 0.18 | 0.18 | 82 | 1010.6 |
| 20260506224611 | 50 | 269 | 2.0 | 7.0 | 0.00 | 0.18 | 0.18 | 85 | 1010.9 |
| 20260506223620 | 50 | 271 | 4.0 | 13.0 | 0.00 | 0.18 | 0.18 | 85 | 1010.7 |
| 20260506222619 | 51 | 334 | 5.0 | 12.0 | 0.00 | 0.18 | 0.18 | 85 | 1010.2 |
| 20260506221615 | 51 | 306 | 4.0 | 12.0 | 0.00 | 0.18 | 0.18 | 83 | 1010.2 |
| 20260506220612 | 52 | 308 | 5.0 | 12.0 | 0.00 | 0.18 | 0.18 | 83 | 1010.1 |
| 20260506215606 | 52 | 274 | 0.0 | 7.0 | 0.00 | 0.18 | 0.18 | 82 | 1010.0 |
| 20260506213605 | 52 | 296 | 5.0 | 8.0 | 0.00 | 0.18 | 0.18 | 83 | 1009.7 |
| 20260506212612 | 53 | 275 | 4.0 | 8.0 | 0.00 | 0.18 | 0.18 | 83 | 1009.4 |
| 20260506211636 | 53 | 247 | 2.0 | 10.0 | 0.00 | 0.18 | 0.18 | 84 | 1009.4 |
| 20260506210620 | 54 | 253 | 4.0 | 13.0 | 0.00 | 0.18 | 0.18 | 84 | 1009.0 |
| 20260506205604 | 54 | 263 | 4.0 | 11.0 | 0.00 | 0.18 | 0.18 | 84 | 1008.9 |
| 20260506204601 | 54 | 269 | 4.0 | 12.0 | 0.00 | 0.18 | 0.18 | 85 | 1008.9 |
| 20260506203642 | 54 | 255 | 5.0 | 10.0 | 0.00 | 0.18 | 0.18 | 85 | 1008.8 |
| 20260506201600 | 55 | 240 | 5.0 | 17.0 | 0.00 | 0.18 | 0.18 | 87 | 1008.7 |
| 20260506200622 | 55 | 246 | 4.0 | 19.0 | 0.00 | 0.18 | 0.18 | 88 | 1008.5 |
| 20260506195635 | 55 | 241 | 3.0 | 11.0 | 0.00 | 0.18 | 0.18 | 90 | 1008.3 |
| 20260506194608 | 55 | 246 | 6.0 | 16.0 | 0.00 | 0.18 | 0.18 | 91 | 1008.3 |
| 20260506192613 | 55 | 257 | 3.0 | 8.0 | 0.00 | 0.18 | 0.18 | 93 | 1008.2 |
| 20260506191634 | 55 | 275 | 3.0 | 12.0 | 0.00 | 0.18 | 0.18 | 92 | 1008.2 |
| 20260506190638 | 56 | 296 | 9.0 | 16.0 | 0.00 | 0.18 | 0.18 | 93 | 1007.9 |
| 20260506185603 | 57 | 257 | 4.0 | 8.0 | 0.00 | 0.18 | 0.18 | 95 | 1007.7 |
| 20260506184602 | 58 | 247 | 3.0 | 7.0 | 0.00 | 0.18 | 0.18 | 98 | 1007.7 |
| 20260506183617 | 57 | 267 | 3.0 | 11.0 | 0.00 | 0.18 | 0.18 | 100 | 1007.8 |
| 20260506182628 | 57 | 251 | 2.0 | 10.0 | 0.00 | 0.18 | 0.18 | 100 | 1007.6 |
| 20260506181646 | 56 | 247 | 3.0 | 7.0 | 0.00 | 0.18 | 0.18 | 100 | 1007.6 |
| 20260506180639 | 56 | 271 | 2.0 | 10.0 | 0.00 | 0.18 | 0.18 | 100 | 1007.7 |
| 20260506175644 | 56 | 274 | 2.0 | 8.0 | 0.00 | 0.18 | 0.18 | 100 | 1007.6 |
| 20260506174646 | 56 | 266 | 4.0 | 11.0 | 0.01 | 0.18 | 0.18 | 100 | 1007.6 |
| 20260506173640 | 56 | 279 | 2.0 | 11.0 | 0.01 | 0.18 | 0.18 | 100 | 1007.6 |
| 20260506171644 | 57 | 230 | 2.0 | 8.0 | 0.01 | 0.18 | 0.18 | 100 | 1007.4 |
| 20260506170623 | 57 | 247 | 3.0 | 6.0 | 0.01 | 0.18 | 0.18 | 100 | 1007.3 |
| 20260506165625 | 57 | 216 | 2.0 | 6.0 | 0.01 | 0.18 | 0.18 | 100 | 1007.2 |
| 20260506164603 | 57 | 237 | 2.0 | 7.0 | 0.00 | 0.17 | 0.17 | 100 | 1007.2 |
| 20260506163630 | 57 | 229 | 3.0 | 6.0 | 0.00 | 0.17 | 0.17 | 100 | 1007.2 |
| 20260506161631 | 56 | 224 | 2.0 | 11.0 | 0.01 | 0.17 | 0.17 | 100 | 1007.3 |
| 20260506160631 | 56 | 228 | 2.0 | 7.0 | 0.01 | 0.17 | 0.17 | 100 | 1007.2 |
| 20260506155601 | 56 | 225 | 3.0 | 7.0 | 0.01 | 0.17 | 0.17 | 100 | 1007.2 |
| 20260506154619 | 56 | 229 | 2.0 | 6.0 | 0.01 | 0.17 | 0.17 | 100 | 1007.2 |
| 20260506153619 | 55 | 220 | 1.0 | 5.0 | 0.01 | 0.17 | 0.17 | 100 | 1007.1 |
| 20260506152631 | 55 | 240 | 1.0 | 2.0 | 0.01 | 0.17 | 0.17 | 100 | 1007.0 |
| 20260506151607 | 55 | 240 | 1.0 | 3.0 | 0.00 | 0.16 | 0.16 | 100 | 1007.0 |
| 20260506150646 | 55 | 240 | 1.0 | 2.0 | 0.00 | 0.16 | 0.16 | 100 | 1006.9 |
| 20260506145606 | 55 | 240 | 0.0 | 3.0 | 0.00 | 0.16 | 0.16 | 100 | 1006.8 |
| 20260506144627 | 55 | 240 | 0.0 | 2.0 | 0.00 | 0.16 | 0.16 | 100 | 1006.8 |
| 20260506143619 | 55 | 240 | 0.0 | 2.0 | 0.01 | 0.16 | 0.16 | 100 | 1006.9 |
| 20260506142645 | 54 | 240 | 0.0 | 3.0 | 0.01 | 0.16 | 0.16 | 100 | 1006.8 |
| 20260506141636 | 54 | 240 | 1.0 | 3.0 | 0.02 | 0.16 | 0.16 | 100 | 1006.8 |
| 20260506140646 | 54 | 239 | 3.0 | 4.0 | 0.03 | 0.16 | 0.16 | 100 | 1006.8 |
| 20260506135645 | 54 | 215 | 1.0 | 6.0 | 0.03 | 0.16 | 0.16 | 100 | 1006.6 |
| 20260506134645 | 54 | 172 | 2.0 | 5.0 | 0.03 | 0.16 | 0.16 | 100 | 1006.6 |
| 20260506133633 | 55 | 204 | 1.0 | 3.0 | 0.02 | 0.15 | 0.15 | 100 | 1006.8 |
| 20260506132620 | 54 | 230 | 0.0 | 3.0 | 0.02 | 0.15 | 0.15 | 100 | 1007.0 |
| 20260506131644 | 54 | 227 | 1.0 | 2.0 | 0.02 | 0.14 | 0.14 | 100 | 1007.0 |
| 20260506130611 | 54 | 227 | 0.0 | 2.0 | 0.02 | 0.13 | 0.13 | 99 | 1007.0 |
| 20260506125608 | 54 | 218 | 1.0 | 2.0 | 0.03 | 0.13 | 0.13 | 99 | 1006.8 |
| 20260506124625 | 54 | 185 | 1.0 | 5.0 | 0.04 | 0.13 | 0.13 | 99 | 1006.8 |
| 20260506123612 | 55 | 171 | 1.0 | 3.0 | 0.06 | 0.13 | 0.13 | 99 | 1006.9 |
| 20260506122603 | 55 | 253 | 0.0 | 1.0 | 0.08 | 0.13 | 0.13 | 99 | 1006.9 |
| 20260506121624 | 54 | 253 | 0.0 | 0.0 | 0.09 | 0.12 | 0.12 | 99 | 1006.9 |
| 20260506120645 | 54 | 253 | 0.0 | 0.0 | 0.09 | 0.11 | 0.11 | 98 | 1007.3 |
| 20260506115643 | 54 | 253 | 0.0 | 2.0 | 0.08 | 0.10 | 0.10 | 98 | 1007.4 |